Time;durP1;ratioP1;P1;durP2;ratioP2;P2;SDS_P1;SDS_P2;PMS_P1;PMS_P2;Temp;Humidity;BMP_temperature;BMP_pressure;BME280_temperature;BME280_humidity;BME280_pressure;Samples;Min_cycle;Max_cycle;Signal;HPM_P1;HPM_P2
2021/12/30 00:00:34;;;;;;;3.15;1.60;;;;;;;14.62;100.00;100053.06;4991731;28;20022;-65
2021/12/30 00:02:59;;;;;;;3.22;1.60;;;;;;;14.57;100.00;100062.25;4995864;28;20072;-65
2021/12/30 00:05:25;;;;;;;2.00;1.10;;;;;;;14.53;100.00;100064.19;5001416;28;20073;-65
2021/12/30 00:07:51;;;;;;;2.60;1.20;;;;;;;14.52;100.00;100059.81;4992316;28;20041;-65
2021/12/30 00:10:17;;;;;;;3.65;1.40;;;;;;;14.56;100.00;100061.41;4998862;28;20397;-65
2021/12/30 00:12:42;;;;;;;5.07;1.67;;;;;;;14.57;100.00;100065.81;5010387;28;20033;-65
2021/12/30 00:15:09;;;;;;;2.60;1.40;;;;;;;14.49;100.00;100068.00;5011619;28;20049;-65
2021/12/30 00:17:34;;;;;;;2.33;1.45;;;;;;;14.38;100.00;100081.00;4998705;28;20422;-65
2021/12/30 00:20:02;;;;;;;2.55;1.48;;;;;;;14.27;100.00;100083.31;4993465;28;20022;-65
2021/12/30 00:22:28;;;;;;;5.15;1.35;;;;;;;14.27;100.00;100088.66;4992000;28;20022;-65
2021/12/30 00:24:54;;;;;;;2.63;1.52;;;;;;;14.25;100.00;100088.72;5008174;28;20033;-65
2021/12/30 00:27:20;;;;;;;1.98;1.30;;;;;;;14.30;100.00;100085.81;5011300;28;20022;-65
2021/12/30 00:29:45;;;;;;;2.75;1.58;;;;;;;14.27;100.00;100094.88;5007741;28;20081;-65
2021/12/30 00:32:11;;;;;;;5.80;1.30;;;;;;;14.26;100.00;100100.31;4996221;28;20089;-65
2021/12/30 00:34:36;;;;;;;2.95;1.50;;;;;;;14.29;100.00;100102.84;4992454;28;20035;-65
2021/12/30 00:37:02;;;;;;;2.42;1.23;;;;;;;14.32;100.00;100102.69;4990405;28;20355;-65
2021/12/30 00:39:27;;;;;;;4.53;1.83;;;;;;;14.22;100.00;100104.00;4992647;28;20022;-65
2021/12/30 00:41:53;;;;;;;6.45;1.50;;;;;;;14.17;100.00;100108.72;4994089;28;20032;-65
2021/12/30 00:44:18;;;;;;;5.95;1.70;;;;;;;14.12;100.00;100108.94;4992196;28;20088;-65
2021/12/30 00:46:44;;;;;;;3.10;1.38;;;;;;;14.10;100.00;100112.63;4991579;28;20026;-65
2021/12/30 00:49:09;;;;;;;4.70;2.15;;;;;;;14.05;100.00;100119.97;4994186;28;20072;-65
2021/12/30 00:51:36;;;;;;;5.60;2.55;;;;;;;13.96;100.00;100110.56;4992238;28;20068;-65
2021/12/30 00:54:02;;;;;;;2.40;1.35;;;;;;;13.99;100.00;100114.88;4991112;28;20072;-65
2021/12/30 00:56:27;;;;;;;3.22;1.20;;;;;;;14.02;100.00;100125.47;4997308;28;20037;-65
2021/12/30 00:58:53;;;;;;;1.75;1.48;;;;;;;14.04;100.00;100123.56;5010373;28;20033;-65
2021/12/30 01:01:19;;;;;;;2.80;1.42;;;;;;;14.07;100.00;100131.47;5003566;28;20139;-65
2021/12/30 01:03:45;;;;;;;3.88;2.03;;;;;;;14.09;100.00;100134.94;4990883;28;20063;-65
2021/12/30 01:06:11;;;;;;;6.10;1.30;;;;;;;14.09;100.00;100142.97;4990561;28;20042;-65
2021/12/30 01:08:37;;;;;;;2.75;1.30;;;;;;;14.11;100.00;100152.69;4993123;28;20442;-65
2021/12/30 01:11:06;;;;;;;1.27;1.13;;;;;;;14.11;100.00;100162.50;4990861;28;20033;-65
2021/12/30 01:13:37;;;;;;;3.83;1.55;;;;;;;14.13;100.00;100155.28;4994471;28;20023;-65
2021/12/30 01:16:05;;;;;;;10.13;1.90;;;;;;;14.13;100.00;100149.94;5006978;28;20521;-65
2021/12/30 01:18:53;;;;;;;5.40;1.75;;;;;;;14.19;100.00;100161.22;4996871;28;20400;-65
2021/12/30 01:21:19;;;;;;;3.88;1.60;;;;;;;14.23;100.00;100164.63;4990525;28;20109;-65
2021/12/30 01:23:44;;;;;;;4.45;1.67;;;;;;;14.21;100.00;100163.81;4991935;28;20117;-65
2021/12/30 01:26:10;;;;;;;5.75;1.90;;;;;;;14.21;100.00;100161.16;4999670;28;20021;-65
2021/12/30 01:28:35;;;;;;;8.52;1.75;;;;;;;14.21;100.00;100163.81;4993433;28;20505;-65
2021/12/30 01:31:02;;;;;;;4.10;1.80;;;;;;;14.26;100.00;100162.72;4992200;28;20540;-65
2021/12/30 01:33:28;;;;;;;4.35;1.98;;;;;;;14.30;100.00;100163.44;4990305;28;20048;-65
2021/12/30 01:35:53;;;;;;;4.13;1.48;;;;;;;14.28;100.00;100166.16;4988949;28;20386;-65
2021/12/30 01:38:19;;;;;;;2.75;1.25;;;;;;;14.32;100.00;100180.28;4997131;28;20100;-65
2021/12/30 01:40:48;;;;;;;2.38;1.23;;;;;;;14.30;100.00;100180.34;5006335;28;20022;-65
2021/12/30 01:43:15;;;;;;;3.40;1.30;;;;;;;14.30;100.00;100190.19;5003741;28;20022;-65
2021/12/30 01:45:42;;;;;;;2.38;1.23;;;;;;;14.32;100.00;100188.31;4989937;28;20092;-65
2021/12/30 01:48:09;;;;;;;2.67;1.00;;;;;;;14.30;100.00;100188.38;4989652;28;20500;-65
2021/12/30 01:50:35;;;;;;;3.08;1.00;;;;;;;14.34;100.00;100183.78;4999961;28;20076;-65
2021/12/30 01:53:03;;;;;;;3.05;1.00;;;;;;;14.31;100.00;100186.59;4990606;28;20131;-65
2021/12/30 01:55:31;;;;;;;1.80;1.02;;;;;;;14.30;100.00;100179.47;5000118;28;20028;-65
2021/12/30 01:57:57;;;;;;;1.20;1.00;;;;;;;14.32;100.00;100188.31;5006315;28;20034;-65
2021/12/30 02:00:25;;;;;;;2.45;0.90;;;;;;;14.34;100.00;100181.97;4998393;28;20453;-65
2021/12/30 02:02:51;;;;;;;1.92;0.85;;;;;;;14.38;100.00;100196.09;4990758;28;20022;-65
2021/12/30 02:05:17;;;;;;;3.40;1.08;;;;;;;14.37;100.00;100194.34;4989768;28;20108;-65
2021/12/30 02:07:43;;;;;;;1.58;0.73;;;;;;;14.43;100.00;100196.75;4992789;28;20030;-65
2021/12/30 02:10:10;;;;;;;3.38;1.45;;;;;;;14.46;100.00;100193.94;4990670;28;20033;-65
2021/12/30 02:12:38;;;;;;;4.68;1.15;;;;;;;14.49;100.00;100207.16;4989912;28;20085;-65
2021/12/30 02:15:07;;;;;;;1.48;0.88;;;;;;;14.52;100.00;100209.69;4991109;28;20506;-65
2021/12/30 02:17:32;;;;;;;1.40;1.05;;;;;;;14.52;100.00;100218.59;4991775;28;20026;-65
2021/12/30 02:19:59;;;;;;;3.60;0.93;;;;;;;14.48;100.00;100210.75;5002408;28;20040;-65
2021/12/30 02:22:25;;;;;;;1.58;0.80;;;;;;;14.48;100.00;100200.06;5009880;28;20425;-65
2021/12/30 02:24:51;;;;;;;4.38;1.00;;;;;;;14.49;100.00;100199.13;5008160;28;20034;-65
2021/12/30 02:27:17;;;;;;;1.73;1.40;;;;;;;14.50;100.00;100201.75;4991532;28;20034;-65
2021/12/30 02:29:42;;;;;;;2.05;0.90;;;;;;;14.48;100.00;100195.59;4988910;28;20109;-65
2021/12/30 02:32:09;;;;;;;3.15;1.38;;;;;;;14.47;100.00;100203.69;4990328;28;20117;-65
2021/12/30 02:34:36;;;;;;;2.00;0.75;;;;;;;14.51;100.00;100211.50;4992764;28;20034;-65
2021/12/30 02:37:03;;;;;;;7.40;0.93;;;;;;;14.47;100.00;100204.56;4991142;28;20482;-65
2021/12/30 02:39:29;;;;;;;4.50;0.93;;;;;;;14.45;100.00;100206.44;4988924;28;20106;-64
2021/12/30 02:41:54;;;;;;;0.93;0.68;;;;;;;14.45;100.00;100205.56;4990336;28;20117;-64
2021/12/30 02:44:20;;;;;;;2.70;0.90;;;;;;;14.48;100.00;100210.75;4992657;28;20448;-65
2021/12/30 02:46:52;;;;;;;2.00;0.60;;;;;;;14.47;100.00;100203.69;4990162;28;20392;-65
2021/12/30 02:49:18;;;;;;;0.70;0.50;;;;;;;14.50;100.00;100219.59;5004591;28;20054;-65
2021/12/30 02:51:44;;;;;;;0.63;0.50;;;;;;;14.52;100.00;100220.41;5010230;28;20060;-65
2021/12/30 02:54:09;;;;;;;1.05;0.60;;;;;;;14.50;100.00;100220.47;4993109;28;20450;-65
2021/12/30 02:56:35;;;;;;;0.98;0.70;;;;;;;14.54;100.00;100221.22;4988917;28;20034;-65
2021/12/30 02:59:01;;;;;;;3.90;0.77;;;;;;;14.50;100.00;100225.84;4989321;28;20381;-65
2021/12/30 03:01:30;;;;;;;3.42;0.75;;;;;;;14.55;100.00;100228.28;5011386;28;20033;-65
2021/12/30 03:04:02;;;;;;;1.38;0.60;;;;;;;14.56;100.00;100230.06;4995671;28;20034;-65
2021/12/30 03:06:28;;;;;;;2.00;0.70;;;;;;;14.55;100.00;100225.63;4993374;28;20450;-64
2021/12/30 03:08:54;;;;;;;8.32;3.05;;;;;;;14.56;100.00;100229.16;4993888;28;20542;-64
2021/12/30 03:11:21;;;;;;;3.40;0.95;;;;;;;14.55;100.00;100230.13;4996072;28;20109;-64
2021/12/30 03:13:47;;;;;;;2.88;1.05;;;;;;;14.53;100.00;100214.97;4993245;28;20109;-64
2021/12/30 03:16:17;;;;;;;1.38;0.90;;;;;;;14.52;100.00;100217.72;4992679;28;20434;-64
2021/12/30 03:18:45;;;;;;;3.25;1.33;;;;;;;14.50;100.00;100222.28;5000231;28;20085;-64
2021/12/30 03:21:14;;;;;;;2.28;1.00;;;;;;;14.46;100.00;100218.03;4996062;28;20085;-64
2021/12/30 03:23:39;;;;;;;3.50;1.05;;;;;;;14.47;100.00;100222.41;4993454;28;20465;-64
2021/12/30 03:26:07;;;;;;;3.55;1.20;;;;;;;14.49;100.00;100228.59;4996349;28;20029;-64
2021/12/30 03:28:33;;;;;;;2.60;1.13;;;;;;;14.47;100.00;100225.97;4999043;28;20038;-64
2021/12/30 03:30:59;;;;;;;4.20;1.90;;;;;;;14.50;100.00;100235.66;4992990;28;20077;-64
2021/12/30 03:33:27;;;;;;;2.58;1.20;;;;;;;14.46;100.00;100234.06;4993096;28;20104;-65
2021/12/30 03:35:52;;;;;;;3.90;1.23;;;;;;;14.51;100.00;100245.44;4995629;28;20034;-65
2021/12/30 03:38:18;;;;;;;2.90;1.10;;;;;;;14.51;100.00;100245.44;4992472;28;20030;-65
2021/12/30 03:40:43;;;;;;;1.95;1.05;;;;;;;14.45;100.00;100237.66;4995219;28;20117;-65
2021/12/30 03:43:09;;;;;;;1.35;0.80;;;;;;;14.49;100.00;100250.88;4993843;28;20137;-65
2021/12/30 03:45:35;;;;;;;3.25;1.00;;;;;;;14.51;100.00;100253.47;5010617;28;20103;-65
2021/12/30 03:48:00;;;;;;;2.13;0.85;;;;;;;14.52;100.00;100252.53;4997896;28;20061;-65
2021/12/30 03:50:29;;;;;;;2.15;0.90;;;;;;;14.73;100.00;100256.06;4992438;28;20486;-65
2021/12/30 03:52:56;;;;;;;2.40;0.80;;;;;;;14.53;100.00;100262.28;4994856;28;20030;-65
2021/12/30 03:55:23;;;;;;;1.27;0.70;;;;;;;14.51;100.00;100258.84;5002397;28;20049;-65
2021/12/30 03:57:51;;;;;;;2.30;0.70;;;;;;;14.52;100.00;100260.56;5011917;28;20584;-64
2021/12/30 04:00:17;;;;;;;4.53;1.40;;;;;;;14.63;100.00;100268.97;5002532;28;20022;-64
2021/12/30 04:02:43;;;;;;;6.35;3.00;;;;;;;14.61;100.00;100273.53;4995342;28;20033;-64
2021/12/30 04:05:09;;;;;;;4.05;2.00;;;;;;;14.59;100.00;100277.22;4992079;28;20054;-64
2021/12/30 04:07:36;;;;;;;2.70;1.30;;;;;;;14.54;100.00;100280.09;4993082;28;20453;-64
2021/12/30 04:10:06;;;;;;;4.07;1.42;;;;;;;14.49;100.00;100276.75;4992117;28;20096;-65
2021/12/30 04:12:31;;;;;;;4.65;1.10;;;;;;;14.52;100.00;100288.22;4991651;28;20026;-65
2021/12/30 04:14:57;;;;;;;1.23;0.82;;;;;;;14.49;100.00;100298.16;5003273;28;20529;-65
2021/12/30 04:17:23;;;;;;;2.28;1.20;;;;;;;14.49;100.00;100298.16;5005267;28;20466;-65
2021/12/30 04:19:49;;;;;;;2.08;1.05;;;;;;;14.51;100.00;100288.28;5001051;28;20026;-65
2021/12/30 04:22:18;;;;;;;2.95;1.10;;;;;;;14.50;100.00;100294.53;5011527;28;20068;-65
2021/12/30 04:24:45;;;;;;;4.75;1.92;;;;;;;14.50;100.00;100283.84;5012473;28;20030;-65
2021/12/30 04:27:10;;;;;;;5.47;1.10;;;;;;;14.52;100.00;100287.31;4998404;28;20026;-65
2021/12/30 04:29:35;;;;;;;2.38;0.90;;;;;;;14.48;100.00;100283.91;4992836;28;20026;-65
2021/12/30 04:32:01;;;;;;;1.70;0.60;;;;;;;14.50;100.00;100289.19;4994310;28;20073;-65
2021/12/30 04:34:26;;;;;;;3.25;0.88;;;;;;;14.50;100.00;100299.91;4992145;28;20129;-65
2021/12/30 04:36:53;;;;;;;1.58;0.80;;;;;;;14.51;100.00;100307.00;4990744;28;20037;-65
2021/12/30 04:39:18;;;;;;;3.03;0.90;;;;;;;14.51;100.00;100301.66;4992599;28;20358;-65
2021/12/30 04:41:44;;;;;;;2.05;0.88;;;;;;;14.53;100.00;100295.28;5004616;28;20041;-64
2021/12/30 04:44:09;;;;;;;3.40;0.85;;;;;;;14.52;100.00;100292.69;4995067;28;20026;-64
2021/12/30 04:46:36;;;;;;;2.47;0.82;;;;;;;14.51;100.00;100299.81;4993905;28;20162;-64
2021/12/30 04:49:03;;;;;;;1.90;1.02;;;;;;;14.51;100.00;100304.34;4989697;28;20057;-64
2021/12/30 04:51:28;;;;;;;2.65;0.88;;;;;;;14.49;100.00;100304.41;4992182;28;20030;-64
2021/12/30 04:53:54;;;;;;;4.60;1.10;;;;;;;14.46;100.00;100301.00;4992375;28;20036;-64
2021/12/30 04:56:19;;;;;;;3.22;0.85;;;;;;;14.56;100.00;100314.84;5011531;28;20446;-64
2021/12/30 04:58:45;;;;;;;3.50;0.70;;;;;;;14.55;100.00;100327.34;5011637;28;20073;-64
2021/12/30 05:01:10;;;;;;;2.95;0.70;;;;;;;14.53;100.00;100315.81;4996002;28;20430;-64
2021/12/30 05:03:35;;;;;;;3.75;0.98;;;;;;;14.53;100.00;100321.19;4991203;28;20029;-64
2021/12/30 05:06:01;;;;;;;2.30;0.90;;;;;;;14.56;100.00;100321.06;4991400;28;20047;-64
2021/12/30 05:08:27;;;;;;;3.08;0.90;;;;;;;14.55;100.00;100331.84;4991676;28;21115;-64
2021/12/30 05:10:52;;;;;;;1.80;0.80;;;;;;;14.56;100.00;100334.44;4994002;28;20022;-64
2021/12/30 05:13:18;;;;;;;2.35;0.80;;;;;;;14.54;100.00;100336.31;4991369;28;20505;-64
2021/12/30 05:15:46;;;;;;;1.45;0.73;;;;;;;14.57;100.00;100338.84;4991761;28;20029;-64
2021/12/30 05:18:14;;;;;;;1.20;0.60;;;;;;;14.55;100.00;100340.72;4996886;28;20045;-64
2021/12/30 05:20:40;;;;;;;2.30;0.63;;;;;;;14.58;100.00;100348.63;5009070;28;20034;-64
2021/12/30 05:23:07;;;;;;;14.25;1.23;;;;;;;14.59;100.00;100342.34;4996674;28;20109;-64
2021/12/30 05:25:32;;;;;;;2.53;0.60;;;;;;;14.61;100.00;100353.88;4995195;28;20498;-64
2021/12/30 05:27:58;;;;;;;0.70;0.70;;;;;;;14.62;100.00;100352.03;4990716;28;20104;-64
2021/12/30 05:30:25;;;;;;;3.75;1.15;;;;;;;14.62;100.00;100346.69;4991852;28;20041;-64
2021/12/30 05:32:52;;;;;;;2.67;1.30;;;;;;;14.61;100.00;100340.47;4993220;28;20442;-64
2021/12/30 05:35:19;;;;;;;5.32;0.95;;;;;;;14.63;100.00;100346.59;5010869;28;20508;-64
2021/12/30 05:37:45;;;;;;;3.38;0.80;;;;;;;14.60;100.00;100348.53;5004122;28;20561;-64
2021/12/30 05:40:13;;;;;;;2.95;0.90;;;;;;;14.63;100.00;100357.31;4998347;28;20037;-64
2021/12/30 05:42:39;;;;;;;1.33;0.70;;;;;;;14.65;100.00;100358.13;4990259;28;20068;-64
2021/12/30 05:45:06;;;;;;;1.63;1.08;;;;;;;14.63;100.00;100349.28;4991916;28;20538;-64
2021/12/30 05:47:33;;;;;;;3.17;1.00;;;;;;;14.66;100.00;100356.34;4997285;28;20018;-64
2021/12/30 05:50:00;;;;;;;3.85;1.00;;;;;;;14.65;100.00;100358.13;4993262;28;20390;-64
2021/12/30 05:52:26;;;;;;;3.92;1.27;;;;;;;14.64;100.00;100359.09;4992455;28;20108;-64
2021/12/30 05:54:51;;;;;;;0.95;0.80;;;;;;;14.62;100.00;100358.25;4993370;28;20025;-64
2021/12/30 05:57:17;;;;;;;3.63;0.77;;;;;;;14.67;100.00;100366.97;4989328;28;20041;-64
2021/12/30 05:59:42;;;;;;;2.28;0.70;;;;;;;14.61;100.00;100355.66;4998184;28;20030;-64
2021/12/30 06:02:07;;;;;;;0.60;0.60;;;;;;;14.68;100.00;100379.41;4995258;28;20026;-64
2021/12/30 06:04:33;;;;;;;1.40;0.70;;;;;;;14.69;100.00;100381.16;4993598;28;20319;-64
2021/12/30 06:06:58;;;;;;;2.65;0.70;;;;;;;14.72;100.00;100381.03;5009303;28;20477;-64
2021/12/30 06:09:25;;;;;;;0.95;0.50;;;;;;;14.74;100.00;100389.88;4991767;28;20498;-64
2021/12/30 06:11:52;;;;;;;0.70;0.50;;;;;;;14.74;100.00;100395.22;4998986;28;20041;-64
2021/12/30 06:14:18;;;;;;;0.65;0.40;;;;;;;14.76;100.00;100398.69;4989612;28;20454;-64
2021/12/30 06:16:43;;;;;;;6.88;0.88;;;;;;;14.79;100.00;100395.91;4992506;28;20065;-64
2021/12/30 06:19:09;;;;;;;1.08;0.70;;;;;;;14.76;100.00;100387.97;4989735;28;20482;-64
2021/12/30 06:21:34;;;;;;;3.22;1.63;;;;;;;14.76;100.00;100392.47;4995190;28;20026;-64
2021/12/30 06:23:59;;;;;;;7.20;1.00;;;;;;;14.73;100.00;100388.13;4968337;28;20044;-64
2021/12/30 06:26:28;;;;;;;1.40;0.80;;;;;;;14.76;100.00;100390.66;5008072;28;20025;-64
2021/12/30 06:28:53;;;;;;;4.60;1.10;;;;;;;14.82;100.00;100398.44;5009369;28;20130;-64
2021/12/30 06:31:19;;;;;;;3.10;0.70;;;;;;;14.81;100.00;100398.50;5003979;28;20530;-64
2021/12/30 06:33:45;;;;;;;1.17;0.52;;;;;;;14.83;100.00;100400.16;4989738;28;20478;-64
2021/12/30 06:36:10;;;;;;;3.10;1.00;;;;;;;14.78;100.00;100396.81;4995524;28;20025;-64
2021/12/30 06:38:36;;;;;;;6.05;1.10;;;;;;;14.86;100.00;100404.53;4992009;28;20038;-64
2021/12/30 06:41:03;;;;;;;3.60;0.77;;;;;;;14.85;100.00;100409.00;4992299;28;20037;-64
2021/12/30 06:43:28;;;;;;;4.43;1.48;;;;;;;14.89;100.00;100410.59;4991785;28;20042;-64
2021/12/30 06:45:54;;;;;;;5.72;2.47;;;;;;;14.89;100.00;100405.25;4990304;28;20029;-64
2021/12/30 06:48:20;;;;;;;2.05;1.10;;;;;;;14.88;100.00;100418.72;4989470;28;20030;-64
2021/12/30 06:50:52;;;;;;;2.60;1.13;;;;;;;14.85;100.00;100419.72;4989970;28;20026;-64
2021/12/30 06:53:19;;;;;;;2.03;1.17;;;;;;;14.85;100.00;100419.72;4991639;28;20032;-64
2021/12/30 06:55:46;;;;;;;2.17;1.00;;;;;;;14.87;100.00;100428.56;4989970;28;20027;-65
2021/12/30 06:58:11;;;;;;;8.45;0.98;;;;;;;14.89;100.00;100424.00;4991481;28;20493;-65
2021/12/30 07:00:37;;;;;;;1.55;0.85;;;;;;;14.95;100.00;100437.16;4991499;28;20050;-65
2021/12/30 07:03:02;;;;;;;1.27;0.88;;;;;;;14.95;100.00;100434.47;4988957;28;20026;-65
2021/12/30 07:05:28;;;;;;;17.70;2.42;;;;;;;14.98;100.00;100439.69;4990410;28;20105;-65
2021/12/30 07:07:53;;;;;;;4.72;1.15;;;;;;;14.99;100.00;100437.88;4992003;28;20441;-65
2021/12/30 07:10:19;;;;;;;1.33;0.70;;;;;;;14.98;100.00;100444.16;4988989;28;20054;-64
2021/12/30 07:12:44;;;;;;;1.10;0.73;;;;;;;15.01;100.00;100469.00;4993221;28;20034;-64
2021/12/30 07:15:10;;;;;;;2.05;0.80;;;;;;;14.98;100.00;100466.47;4996523;28;20471;-64
2021/12/30 07:17:35;;;;;;;2.20;0.88;;;;;;;15.02;100.00;100469.88;4989282;28;20076;-64
2021/12/30 07:20:03;;;;;;;4.35;1.02;;;;;;;14.99;100.00;100470.88;4990314;28;20137;-64
2021/12/30 07:22:28;;;;;;;1.40;0.60;;;;;;;14.97;100.00;100478.13;4992008;28;20030;-64
2021/12/30 07:24:56;;;;;;;3.03;0.98;;;;;;;15.01;100.00;100485.09;4989597;28;20491;-64
2021/12/30 07:27:21;;;;;;;3.20;0.77;;;;;;;15.03;100.00;100482.34;4988843;28;20102;-64
2021/12/30 07:29:46;;;;;;;3.17;1.08;;;;;;;14.98;100.00;100482.53;4991977;28;20092;-64
2021/12/30 07:32:12;;;;;;;4.03;0.93;;;;;;;14.99;100.00;100473.56;4989387;28;20146;-64
2021/12/30 07:34:37;;;;;;;2.70;0.85;;;;;;;15.02;100.00;100485.97;4989948;28;20031;-64
2021/12/30 07:37:03;;;;;;;4.30;0.90;;;;;;;15.00;100.00;100480.69;4991553;28;20394;-64
2021/12/30 07:39:28;;;;;;;1.13;0.60;;;;;;;15.02;100.00;100492.22;4996005;28;20046;-64
2021/12/30 07:41:54;;;;;;;1.25;0.60;;;;;;;15.01;100.00;100479.72;4988833;28;20018;-64
2021/12/30 07:44:19;;;;;;;2.15;0.95;;;;;;;15.03;100.00;100493.94;4989461;28;20033;-64
2021/12/30 07:46:44;;;;;;;1.13;0.70;;;;;;;15.03;100.00;100504.66;4994536;28;20546;-64
2021/12/30 07:49:10;;;;;;;1.92;1.55;;;;;;;15.04;100.00;100506.38;4991769;28;20038;-64
2021/12/30 07:51:35;;;;;;;1.10;0.95;;;;;;;15.06;100.00;100501.84;4993632;28;20034;-64
2021/12/30 07:54:01;;;;;;;2.70;1.08;;;;;;;15.07;100.00;100506.28;5001255;28;20041;-64
2021/12/30 07:56:26;;;;;;;3.05;1.35;;;;;;;15.09;100.00;100507.06;4992394;28;20034;-64
2021/12/30 07:58:51;;;;;;;1.23;0.90;;;;;;;15.08;100.00;100508.00;4995409;28;20041;-64
2021/12/30 08:01:17;;;;;;;1.98;0.82;;;;;;;15.09;100.00;100515.09;4997820;28;20096;-64
2021/12/30 08:03:42;;;;;;;3.35;0.85;;;;;;;15.13;100.00;100526.56;4995960;28;21028;-64
2021/12/30 08:06:08;;;;;;;2.67;0.63;;;;;;;15.15;100.00;100530.94;4991895;28;20049;-64
2021/12/30 08:08:34;;;;;;;2.55;0.90;;;;;;;15.14;100.00;100531.00;4991759;28;20023;-64
2021/12/30 08:10:59;;;;;;;2.17;1.23;;;;;;;15.15;100.00;100530.94;5001686;28;20030;-65
2021/12/30 08:13:25;;;;;;;2.92;1.55;;;;;;;15.15;100.00;100519.34;5005097;28;20088;-64
2021/12/30 08:15:51;;;;;;;3.13;1.55;;;;;;;15.14;100.00;100518.44;5011825;28;20025;-64
2021/12/30 08:18:16;;;;;;;2.85;1.90;;;;;;;15.23;100.00;100528.78;5010467;28;20014;-64
2021/12/30 08:20:41;;;;;;;3.30;1.45;;;;;;;15.28;100.00;100523.22;4994996;28;20036;-64
2021/12/30 08:23:07;;;;;;;2.55;1.45;;;;;;;15.28;100.00;100513.38;4992008;28;20022;-64
2021/12/30 08:25:32;;;;;;;3.90;1.75;;;;;;;15.30;100.00;100519.56;4994355;28;20034;-64
2021/12/30 08:27:58;;;;;;;2.75;1.25;;;;;;;15.32;100.00;100511.44;4990280;28;20386;-64
2021/12/30 08:30:24;;;;;;;2.70;1.23;;;;;;;15.35;100.00;100517.50;4992993;28;20026;-64
2021/12/30 08:32:49;;;;;;;4.03;1.70;;;;;;;15.44;100.00;100511.78;5001479;28;20081;-64
2021/12/30 08:35:17;;;;;;;3.90;1.65;;;;;;;15.44;100.00;100517.16;4991924;28;20506;-64
2021/12/30 08:37:43;;;;;;;3.80;1.40;;;;;;;15.46;100.00;100522.44;4993774;28;20038;-64
2021/12/30 08:40:10;;;;;;;5.13;1.98;;;;;;;15.47;100.00;100522.38;4993613;28;20077;-64
2021/12/30 08:42:37;;;;;;;3.75;1.88;;;;;;;15.52;100.00;100525.72;4991026;28;20029;-64
2021/12/30 08:45:04;;;;;;;2.20;1.00;;;;;;;15.49;100.00;100525.88;4993793;28;20109;-64
2021/12/30 08:47:31;;;;;;;4.00;1.20;;;;;;;15.51;100.00;100531.16;4991906;28;20034;-64
2021/12/30 08:49:57;;;;;;;1.48;0.77;;;;;;;15.42;100.00;100512.81;4991429;28;20113;-64
2021/12/30 08:52:24;;;;;;;1.83;0.80;;;;;;;15.56;100.00;100531.81;4997490;28;20117;-64
2021/12/30 08:54:51;;;;;;;1.85;1.08;;;;;;;15.55;100.00;100530.94;4991569;28;20026;-64
2021/12/30 08:57:18;;;;;;;1.48;0.93;;;;;;;15.50;100.00;100526.75;4990464;28;20046;-64
2021/12/30 08:59:44;;;;;;;0.77;0.63;;;;;;;15.53;100.00;100522.09;4998873;28;20026;-64
2021/12/30 09:02:10;;;;;;;1.95;0.60;;;;;;;15.60;100.00;100536.13;5003127;28;20541;-64
2021/12/30 09:04:36;;;;;;;1.45;0.80;;;;;;;15.58;100.00;100533.47;4990935;28;20391;-65
2021/12/30 09:07:03;;;;;;;3.85;1.98;;;;;;;15.58;100.00;100524.59;4993074;28;20121;-65
2021/12/30 09:09:28;;;;;;;2.90;0.90;;;;;;;15.62;100.00;100529.75;4990062;28;20476;-65
2021/12/30 09:11:55;;;;;;;2.83;1.00;;;;;;;15.62;100.00;100527.06;4990704;28;20097;-65
2021/12/30 09:14:21;;;;;;;1.00;0.85;;;;;;;15.65;100.00;100531.41;4993591;28;20077;-65
2021/12/30 09:16:48;;;;;;;1.52;0.70;;;;;;;15.68;100.00;100532.13;4991073;28;20026;-65
2021/12/30 09:19:15;;;;;;;1.60;0.90;;;;;;;15.73;100.00;100524.75;4994700;28;20105;-65
2021/12/30 09:21:41;;;;;;;1.75;0.93;;;;;;;15.82;100.00;100516.28;4991032;28;20038;-65
2021/12/30 09:24:08;;;;;;;2.63;1.17;;;;;;;15.89;100.00;100514.19;4990982;28;20109;-65
2021/12/30 09:26:34;;;;;;;1.10;0.70;;;;;;;16.04;100.00;100517.97;5000715;28;20081;-65
2021/12/30 09:29:00;;;;;;;2.22;0.80;;;;;;;16.09;100.00;100526.69;4990173;28;20430;-65
2021/12/30 09:31:28;;;;;;;0.75;0.60;;;;;;;16.09;100.00;100511.47;4991948;28;20479;-64
2021/12/30 09:33:55;;;;;;;1.30;0.70;;;;;;;16.22;100.00;100527.84;4993458;28;20022;-64
2021/12/30 09:36:21;;;;;;;1.00;0.75;;;;;;;16.22;100.00;100528.72;4991066;28;20034;-65
2021/12/30 09:38:47;;;;;;;1.15;0.70;;;;;;;16.43;100.00;100534.88;4990506;28;20465;-64
2021/12/30 09:41:12;;;;;;;1.15;0.55;;;;;;;16.62;100.00;100530.41;4991870;28;20022;-64
2021/12/30 09:43:37;;;;;;;1.25;0.73;;;;;;;16.68;100.00;100535.47;4993922;28;20042;-64
2021/12/30 09:46:03;;;;;;;1.48;0.70;;;;;;;16.74;100.00;100532.47;4990545;28;20382;-64
2021/12/30 09:48:28;;;;;;;0.70;0.60;;;;;;;16.59;100.00;100539.47;4989394;28;20371;-64
2021/12/30 09:50:55;;;;;;;1.20;0.60;;;;;;;16.61;100.00;100547.44;4990059;28;20117;-64
2021/12/30 09:53:23;;;;;;;0.43;0.40;;;;;;;16.63;100.00;100540.19;4993469;28;20041;-64
2021/12/30 09:55:50;;;;;;;1.05;0.60;;;;;;;16.60;100.00;100551.97;5011075;28;20079;-64
2021/12/30 09:58:15;;;;;;;2.17;0.75;;;;;;;16.61;100.00;100547.44;5009307;28;20033;-64
2021/12/30 10:00:41;;;;;;;1.70;0.57;;;;;;;16.60;100.00;100559.13;4999724;28;20030;-65
2021/12/30 10:03:07;;;;;;;0.82;0.68;;;;;;;16.59;100.00;100552.03;4990532;28;20157;-65
2021/12/30 10:05:35;;;;;;;0.75;0.60;;;;;;;16.70;100.00;100558.63;4990273;28;20057;-64
2021/12/30 10:08:13;;;;;;;1.00;0.50;;;;;;;16.67;100.00;100569.50;4989892;28;20030;-64
2021/12/30 10:10:41;;;;;;;2.15;0.88;;;;;;;16.75;100.00;100561.09;4995313;28;20034;-65
2021/12/30 10:13:25;;;;;;;1.75;1.00;;;;;;;16.70;100.00;100547.00;5003293;28;20034;-65
2021/12/30 10:15:54;;;;;;;2.47;1.08;;;;;;;16.43;100.00;100553.66;5004346;28;20041;-65
2021/12/30 10:18:20;;;;;;;2.22;1.05;;;;;;;16.73;100.00;100557.59;4989578;28;20041;-64
2021/12/30 10:20:47;;;;;;;3.85;1.67;;;;;;;16.73;100.00;100549.53;4996739;28;20081;-64
2021/12/30 10:23:15;;;;;;;7.80;2.80;;;;;;;16.58;100.00;100547.59;4987998;28;20390;-64
2021/12/30 10:25:43;;;;;;;3.75;1.88;;;;;;;16.44;100.00;100544.69;5003923;28;20030;-64
2021/12/30 10:28:25;;;;;;;3.38;1.75;;;;;;;16.60;100.00;100560.03;4994821;28;20084;-64
2021/12/30 10:30:56;;;;;;;2.47;0.90;;;;;;;16.71;100.00;100551.41;4989399;28;20457;-64
2021/12/30 10:33:25;;;;;;;2.45;1.20;;;;;;;16.81;100.00;100555.41;4990666;28;20026;-64
2021/12/30 10:35:53;;;;;;;1.48;1.00;;;;;;;16.86;100.00;100554.22;4991582;28;20022;-64
2021/12/30 10:38:19;;;;;;;4.10;2.00;;;;;;;16.73;100.00;100549.53;4996901;28;20113;-64
2021/12/30 10:40:58;;;;;;;4.05;1.98;;;;;;;16.94;100.00;100552.03;4992183;28;20113;-64
2021/12/30 10:43:32;;;;;;;2.83;1.00;;;;;;;16.67;100.00;100547.16;4990298;28;20027;-64
2021/12/30 10:46:10;;;;;;;3.38;1.70;;;;;;;16.92;100.00;100550.34;4992582;28;20101;-64
2021/12/30 10:48:55;;;;;;;0.73;0.60;;;;;;;16.92;100.00;100542.28;4990622;28;20026;-64
2021/12/30 10:51:35;;;;;;;1.00;0.60;;;;;;;17.03;100.00;100550.72;4995955;28;20076;-64
2021/12/30 10:54:18;;;;;;;1.42;0.68;;;;;;;17.02;100.00;100540.88;4989978;28;20022;-64
2021/12/30 10:56:46;;;;;;;0.95;0.60;;;;;;;17.07;100.00;100560.34;4991546;28;20542;-64
2021/12/30 10:59:22;;;;;;;2.08;0.80;;;;;;;17.04;100.00;100558.69;4991690;28;20033;-64
2021/12/30 11:01:58;;;;;;;1.70;0.90;;;;;;;17.05;100.00;100560.41;5008708;28;20322;-64
2021/12/30 11:04:38;;;;;;;3.30;0.80;;;;;;;17.04;100.00;100557.81;4992996;28;20033;-64
2021/12/30 11:07:05;;;;;;;1.92;0.80;;;;;;;17.07;100.00;100552.28;4989147;28;20049;-64
2021/12/30 11:09:30;;;;;;;2.15;0.82;;;;;;;17.06;100.00;100538.00;4992154;28;20034;-64
2021/12/30 11:11:58;;;;;;;3.13;1.08;;;;;;;17.08;100.00;100538.75;4988581;28;20088;-64
2021/12/30 11:14:34;;;;;;;3.75;1.50;;;;;;;17.02;100.00;100533.69;4989211;28;20062;-64